createdAt,value
2019-01-20T00:02:13.893Z,35.47
2019-01-20T00:07:17.565Z,34.47
2019-01-20T00:12:21.313Z,34.23
2019-01-20T00:17:24.979Z,29.30
2019-01-20T00:22:28.681Z,28.97
2019-01-20T00:27:32.354Z,24.10
2019-01-20T00:32:36.025Z,28.13
2019-01-20T00:37:39.709Z,25.03
2019-01-20T00:42:43.541Z,24.03
2019-01-20T00:47:47.212Z,27.37
2019-01-20T00:52:50.877Z,26.47
2019-01-20T00:57:54.729Z,26.07
2019-01-20T01:02:58.645Z,31.70
2019-01-20T01:08:02.384Z,23.13
2019-01-20T01:13:06.332Z,31.90
2019-01-20T01:18:10.076Z,28.30
2019-01-20T01:23:13.745Z,24.70
2019-01-20T01:28:17.429Z,28.83
2019-01-20T01:33:21.113Z,26.13
2019-01-20T01:38:24.862Z,26.27
2019-01-20T01:43:28.525Z,23.80
2019-01-20T01:48:32.210Z,25.33
2019-01-20T01:53:35.873Z,27.87
2019-01-20T01:58:39.603Z,25.03
2019-01-20T02:03:43.272Z,23.07
2019-01-20T02:08:46.941Z,27.47
2019-01-20T02:13:50.604Z,30.27
2019-01-20T02:18:54.360Z,24.57
2019-01-20T02:23:58.029Z,26.37
2019-01-20T02:29:01.709Z,23.60
2019-01-20T02:34:05.745Z,27.47
2019-01-20T02:39:09.485Z,24.53
2019-01-20T02:44:13.147Z,23.10
2019-01-20T02:49:16.848Z,27.77
2019-01-20T02:54:20.555Z,24.10
2019-01-20T02:59:24.261Z,25.10
2019-01-20T03:04:27.962Z,26.30
2019-01-20T03:09:31.657Z,24.50
2019-01-20T03:14:35.353Z,25.77
2019-01-20T03:19:39.378Z,22.53
2019-01-20T03:24:43.088Z,21.03
2019-01-20T03:29:46.875Z,27.20
2019-01-20T03:34:50.566Z,25.60
2019-01-20T03:39:54.261Z,24.33
2019-01-20T03:44:57.973Z,23.60
2019-01-20T03:50:01.668Z,24.73
2019-01-20T03:55:06.208Z,25.23
2019-01-20T04:00:18.314Z,22.27
2019-01-20T04:05:22.073Z,23.40
2019-01-20T04:10:25.791Z,24.37
2019-01-20T04:15:29.719Z,23.73
2019-01-20T04:20:33.431Z,23.63
2019-01-20T04:25:37.219Z,20.80
2019-01-20T04:30:40.927Z,24.07
2019-01-20T04:35:44.636Z,26.67
2019-01-20T04:40:48.349Z,25.47
2019-01-20T04:45:52.075Z,24.20
2019-01-20T04:50:56.041Z,21.17
2019-01-20T04:55:59.750Z,23.67
2019-01-20T05:01:03.553Z,22.07
2019-01-20T05:06:07.301Z,32.17
2019-01-20T05:11:11.063Z,26.40
2019-01-20T05:16:15.061Z,32.37
2019-01-20T05:21:18.778Z,35.17
2019-01-20T05:26:22.486Z,32.03
2019-01-20T05:31:26.271Z,31.10
2019-01-20T05:36:29.985Z,36.17
2019-01-20T05:41:33.682Z,33.87
2019-01-20T05:46:37.446Z,32.40
2019-01-20T05:51:41.151Z,40.83
2019-01-20T05:56:45.272Z,33.93
2019-01-20T06:01:48.991Z,36.33
2019-01-20T06:06:52.734Z,38.67
2019-01-20T06:11:56.471Z,31.80
2019-01-20T06:17:00.189Z,34.67
2019-01-20T06:22:04.062Z,32.57
2019-01-20T06:27:07.773Z,29.03
2019-01-20T06:32:11.578Z,25.97
2019-01-20T06:37:15.322Z,23.10
2019-01-20T06:42:19.046Z,24.73
2019-01-20T06:47:22.769Z,25.37
2019-01-20T06:52:26.629Z,24.73
2019-01-20T06:57:30.356Z,24.80
2019-01-20T07:02:34.106Z,23.50
2019-01-20T07:07:39.230Z,22.87
2019-01-20T07:12:43.436Z,23.17
2019-01-20T07:17:47.277Z,23.57
2019-01-20T07:22:51.391Z,25.70
2019-01-20T07:27:55.130Z,29.13
2019-01-20T07:32:59.187Z,31.47
2019-01-20T07:38:02.919Z,45.57
2019-01-20T07:43:06.822Z,42.37
2019-01-20T07:48:10.807Z,58.03
2019-01-20T07:53:14.638Z,29.23
2019-01-20T07:58:18.664Z,33.33
2019-01-20T08:03:22.446Z,29.77
2019-01-20T08:08:26.171Z,29.07
2019-01-20T08:13:29.874Z,31.43
2019-01-20T08:18:33.850Z,38.13
2019-01-20T08:23:37.574Z,31.87
2019-01-20T08:28:41.550Z,35.67
2019-01-20T08:33:45.463Z,38.93
2019-01-20T08:38:49.306Z,37.23
2019-01-20T08:43:54.019Z,48.87
2019-01-20T08:48:58.116Z,33.50
2019-01-20T08:54:01.998Z,41.03
2019-01-20T08:59:05.866Z,51.70
2019-01-20T09:04:09.593Z,53.40
2019-01-20T09:09:13.561Z,47.60
2019-01-20T09:14:17.293Z,55.23
2019-01-20T09:19:21.317Z,39.70
2019-01-20T09:24:25.029Z,48.53
2019-01-20T09:29:28.738Z,46.13
2019-01-20T09:34:32.755Z,56.50
2019-01-20T09:39:36.815Z,52.60
2019-01-20T09:44:44.281Z,45.23
2019-01-20T09:49:47.994Z,55.30
2019-01-20T09:54:52.046Z,51.73
2019-01-20T09:59:57.486Z,55.63
2019-01-20T10:05:01.528Z,48.20
2019-01-20T10:10:06.578Z,55.30
2019-01-20T10:15:13.694Z,49.40
2019-01-20T10:20:20.158Z,61.50
2019-01-20T10:25:45.208Z,53.33
2019-01-20T10:30:49.062Z,61.13
2019-01-20T10:36:00.849Z,54.07
2019-01-20T10:41:05.254Z,59.93
2019-01-20T10:46:08.945Z,56.93
2019-01-20T10:51:12.726Z,56.90
2019-01-20T10:56:16.801Z,53.80
2019-01-20T11:01:20.668Z,53.40
2019-01-20T11:06:24.427Z,65.67
2019-01-20T11:11:28.219Z,53.03
2019-01-20T11:16:31.946Z,57.10
2019-01-20T11:21:35.658Z,48.97
2019-01-20T11:26:39.574Z,91.23
2019-01-20T11:31:43.318Z,56.97
2019-01-20T11:36:47.033Z,58.97
2019-01-20T11:41:50.747Z,45.80
2019-01-20T11:46:54.830Z,56.97
2019-01-20T11:51:58.897Z,45.27
2019-01-20T11:57:02.607Z,51.97
2019-01-20T12:02:06.651Z,42.00
2019-01-20T12:07:10.413Z,42.47
2019-01-20T12:12:14.115Z,41.73
2019-01-20T12:17:17.906Z,37.60
2019-01-20T12:22:21.706Z,34.63
2019-01-20T12:27:25.616Z,37.43
2019-01-20T12:32:30.095Z,37.33
2019-01-20T12:37:33.877Z,33.37
2019-01-20T12:42:37.577Z,38.57
2019-01-20T12:47:41.318Z,38.53
2019-01-20T12:52:45.214Z,29.00
2019-01-20T12:57:48.909Z,33.63
2019-01-20T13:02:52.681Z,34.20
2019-01-20T13:07:56.468Z,30.40
2019-01-20T13:13:00.337Z,29.83
2019-01-20T13:18:04.220Z,33.80
2019-01-20T13:23:07.925Z,32.90
2019-01-20T13:28:11.754Z,31.53
2019-01-20T13:33:15.508Z,28.57
2019-01-20T13:38:21.558Z,28.67
2019-01-20T13:43:25.280Z,31.20
2019-01-20T13:48:29.041Z,29.10
2019-01-20T13:53:32.733Z,27.30
2019-01-20T13:58:36.429Z,24.73
2019-01-20T14:03:40.417Z,26.77
2019-01-20T14:08:44.565Z,23.80
2019-01-20T14:13:48.422Z,25.17
2019-01-20T14:18:52.129Z,23.27
2019-01-20T14:23:55.826Z,24.43
2019-01-20T14:28:59.569Z,25.73
2019-01-20T14:34:03.725Z,25.50
2019-01-20T14:39:12.218Z,25.63
2019-01-20T14:44:15.927Z,24.33
2019-01-20T14:49:19.669Z,25.00
2019-01-20T14:54:23.375Z,24.93
2019-01-20T14:59:27.354Z,23.73
2019-01-20T15:04:31.083Z,25.73
2019-01-20T15:09:34.783Z,22.37
2019-01-20T15:14:38.505Z,25.57
2019-01-20T15:19:42.237Z,21.80
2019-01-20T15:24:45.923Z,23.73
2019-01-20T15:29:49.626Z,22.10
2019-01-20T15:34:53.613Z,20.03
2019-01-20T15:39:57.345Z,16.60
2019-01-20T15:45:01.406Z,22.60
2019-01-20T15:50:07.854Z,19.33
2019-01-20T15:55:12.048Z,23.87
2019-01-20T16:00:23.779Z,20.63
2019-01-20T16:05:28.625Z,22.67
2019-01-20T16:10:32.380Z,20.43
2019-01-20T16:15:37.319Z,23.87
2019-01-20T16:20:41.175Z,24.93
2019-01-20T16:25:45.261Z,24.37
2019-01-20T16:30:49.026Z,16.87
2019-01-20T16:35:52.815Z,15.80
2019-01-20T16:40:56.601Z,20.47
2019-01-20T16:46:00.292Z,21.27
2019-01-20T16:51:05.560Z,24.00
2019-01-20T16:56:09.377Z,19.57
2019-01-20T17:01:13.776Z,18.43
2019-01-20T17:06:17.506Z,20.40
2019-01-20T17:11:21.276Z,17.13
2019-01-20T17:16:25.351Z,15.93
2019-01-20T17:21:29.052Z,17.97
2019-01-20T17:26:34.360Z,16.87
2019-01-20T17:31:38.213Z,16.97
2019-01-20T17:36:42.754Z,14.73
2019-01-20T17:41:46.553Z,16.17
2019-01-20T17:46:50.372Z,16.37
2019-01-20T17:51:54.162Z,18.73
2019-01-20T17:56:58.178Z,18.60
2019-01-20T18:02:02.539Z,13.40
2019-01-20T18:07:06.568Z,15.63
2019-01-20T18:12:10.300Z,16.87
2019-01-20T18:17:14.082Z,16.90
2019-01-20T18:22:17.778Z,18.97
2019-01-20T18:27:21.659Z,20.70
2019-01-20T18:32:25.781Z,20.07
2019-01-20T18:37:29.679Z,18.53
2019-01-20T18:42:34.115Z,17.00
2019-01-20T18:47:38.051Z,15.53
2019-01-20T18:52:42.484Z,19.17
2019-01-20T18:57:47.981Z,20.90
2019-01-20T19:02:52.026Z,18.03
2019-01-20T19:07:56.113Z,16.63
2019-01-20T19:13:00.281Z,15.30
2019-01-20T19:18:05.014Z,15.80
2019-01-20T19:23:09.897Z,14.50
2019-01-20T19:28:14.063Z,15.20
2019-01-20T19:33:18.197Z,14.97
2019-01-20T19:38:22.136Z,16.10
2019-01-20T19:43:26.210Z,18.53
2019-01-20T19:48:30.324Z,13.37
2019-01-20T19:53:34.076Z,15.87
2019-01-20T19:58:38.185Z,15.93
2019-01-20T20:03:42.586Z,12.87
2019-01-20T20:08:47.040Z,13.17
2019-01-20T20:13:50.937Z,12.13
2019-01-20T20:18:54.945Z,14.57
2019-01-20T20:23:59.078Z,12.83
2019-01-20T20:29:03.347Z,16.13
2019-01-20T20:34:07.165Z,13.47
2019-01-20T20:39:11.531Z,16.73
2019-01-20T20:44:15.708Z,14.40
2019-01-20T20:49:19.720Z,12.33
2019-01-20T20:54:23.735Z,16.10
2019-01-20T20:59:28.051Z,12.97
2019-01-20T21:04:31.753Z,12.30
2019-01-20T21:09:35.614Z,11.20
2019-01-20T21:14:40.355Z,14.40
2019-01-20T21:19:44.454Z,13.67
2019-01-20T21:24:48.638Z,12.27
2019-01-20T21:29:53.079Z,11.43
2019-01-20T21:34:56.997Z,13.67
2019-01-20T21:40:00.989Z,10.83
2019-01-20T21:45:06.338Z,12.50
2019-01-20T21:50:25.048Z,13.03
2019-01-20T21:55:29.054Z,12.43
2019-01-20T22:00:33.393Z,13.87
2019-01-20T22:05:37.082Z,12.43
2019-01-20T22:10:40.783Z,13.40
2019-01-20T22:15:44.483Z,12.23
2019-01-20T22:20:48.200Z,12.67
2019-01-20T22:25:51.900Z,14.40
2019-01-20T22:30:55.597Z,12.50
2019-01-20T22:35:59.317Z,12.10
2019-01-20T22:41:03.037Z,14.37
2019-01-20T22:46:06.757Z,13.30
2019-01-20T22:51:10.450Z,13.40
2019-01-20T22:56:14.193Z,13.47
2019-01-20T23:01:22.049Z,18.30
2019-01-20T23:06:25.781Z,18.73
2019-01-20T23:11:29.529Z,15.43
2019-01-20T23:16:33.334Z,17.83
2019-01-20T23:21:37.075Z,16.27
2019-01-20T23:26:40.792Z,13.83
2019-01-20T23:31:44.525Z,16.13
2019-01-20T23:36:48.251Z,13.37
2019-01-20T23:41:52.001Z,12.73
2019-01-20T23:46:56.024Z,11.97
2019-01-20T23:51:59.754Z,13.83
2019-01-20T23:57:03.593Z,13.37
